sensor_id;sensor_type;location;lat;lon;timestamp;temperature;humidity
70246;SHT30;57637;49.272;8.590;2023-05-10T00:01:51;14.31;90.15
70246;SHT30;57637;49.272;8.590;2023-05-10T00:04:17;14.32;90.16
70246;SHT30;57637;49.272;8.590;2023-05-10T00:06:42;14.32;90.13
70246;SHT30;57637;49.272;8.590;2023-05-10T00:09:07;14.28;90.06
70246;SHT30;57637;49.272;8.590;2023-05-10T00:11:33;14.28;90.17
70246;SHT30;57637;49.272;8.590;2023-05-10T00:13:58;14.28;90.11
70246;SHT30;57637;49.272;8.590;2023-05-10T00:16:23;14.25;90.06
70246;SHT30;57637;49.272;8.590;2023-05-10T00:18:49;14.25;90.01
70246;SHT30;57637;49.272;8.590;2023-05-10T00:21:14;14.25;90.11
70246;SHT30;57637;49.272;8.590;2023-05-10T00:23:40;14.21;90.13
70246;SHT30;57637;49.272;8.590;2023-05-10T00:26:05;14.22;90.22
70246;SHT30;57637;49.272;8.590;2023-05-10T00:28:31;14.21;90.21
70246;SHT30;57637;49.272;8.590;2023-05-10T00:30:56;14.21;90.34
70246;SHT30;57637;49.272;8.590;2023-05-10T00:33:21;14.17;90.44
70246;SHT30;57637;49.272;8.590;2023-05-10T00:35:47;14.18;90.42
70246;SHT30;57637;49.272;8.590;2023-05-10T00:38:12;14.18;90.39
70246;SHT30;57637;49.272;8.590;2023-05-10T00:40:38;14.20;90.36
70246;SHT30;57637;49.272;8.590;2023-05-10T00:43:03;14.18;90.36
70246;SHT30;57637;49.272;8.590;2023-05-10T00:45:30;14.18;90.28
70246;SHT30;57637;49.272;8.590;2023-05-10T00:47:57;14.17;90.30
70246;SHT30;57637;49.272;8.590;2023-05-10T00:50:24;14.13;90.29
70246;SHT30;57637;49.272;8.590;2023-05-10T00:52:50;14.10;90.23
70246;SHT30;57637;49.272;8.590;2023-05-10T00:55:16;14.10;90.16
70246;SHT30;57637;49.272;8.590;2023-05-10T00:57:43;13.98;90.11
70246;SHT30;57637;49.272;8.590;2023-05-10T01:00:08;14.03;90.24
70246;SHT30;57637;49.272;8.590;2023-05-10T01:02:34;14.00;90.11
70246;SHT30;57637;49.272;8.590;2023-05-10T01:05:00;13.97;90.00
70246;SHT30;57637;49.272;8.590;2023-05-10T01:07:27;13.98;90.02
70246;SHT30;57637;49.272;8.590;2023-05-10T01:09:53;13.93;89.94
70246;SHT30;57637;49.272;8.590;2023-05-10T01:12:18;13.88;90.05
70246;SHT30;57637;49.272;8.590;2023-05-10T01:14:44;13.88;89.90
70246;SHT30;57637;49.272;8.590;2023-05-10T01:17:10;13.83;89.88
70246;SHT30;57637;49.272;8.590;2023-05-10T01:19:37;13.85;89.94
70246;SHT30;57637;49.272;8.590;2023-05-10T01:24:51;13.77;89.92
70246;SHT30;57637;49.272;8.590;2023-05-10T01:36:30;13.71;89.93
70246;SHT30;57637;49.272;8.590;2023-05-10T01:39:21;13.70;89.89
70246;SHT30;57637;49.272;8.590;2023-05-10T01:47:07;13.69;89.92
70246;SHT30;57637;49.272;8.590;2023-05-10T01:49:44;13.70;89.90
70246;SHT30;57637;49.272;8.590;2023-05-10T01:52:15;13.69;89.98
70246;SHT30;57637;49.272;8.590;2023-05-10T01:55:04;13.67;90.08
70246;SHT30;57637;49.272;8.590;2023-05-10T01:57:35;13.59;90.21
70246;SHT30;57637;49.272;8.590;2023-05-10T02:00:04;13.60;90.33
70246;SHT30;57637;49.272;8.590;2023-05-10T02:02:33;13.62;90.31
70246;SHT30;57637;49.272;8.590;2023-05-10T02:05:02;13.62;90.24
70246;SHT30;57637;49.272;8.590;2023-05-10T02:07:30;13.60;90.15
70246;SHT30;57637;49.272;8.590;2023-05-10T02:09:58;13.59;90.13
70246;SHT30;57637;49.272;8.590;2023-05-10T02:12:24;13.50;90.19
70246;SHT30;57637;49.272;8.590;2023-05-10T02:14:50;13.49;90.21
70246;SHT30;57637;49.272;8.590;2023-05-10T02:17:17;13.47;90.27
70246;SHT30;57637;49.272;8.590;2023-05-10T02:19:44;13.40;90.37
70246;SHT30;57637;49.272;8.590;2023-05-10T02:22:12;13.40;90.52
70246;SHT30;57637;49.272;8.590;2023-05-10T02:24:38;13.42;90.49
70246;SHT30;57637;49.272;8.590;2023-05-10T02:27:05;13.46;90.58
70246;SHT30;57637;49.272;8.590;2023-05-10T02:29:31;13.44;90.66
70246;SHT30;57637;49.272;8.590;2023-05-10T02:31:58;13.47;90.64
70246;SHT30;57637;49.272;8.590;2023-05-10T02:34:27;13.50;90.64
70246;SHT30;57637;49.272;8.590;2023-05-10T02:36:53;13.47;90.57
70246;SHT30;57637;49.272;8.590;2023-05-10T02:39:20;13.49;90.66
70246;SHT30;57637;49.272;8.590;2023-05-10T02:41:46;13.52;90.70
70246;SHT30;57637;49.272;8.590;2023-05-10T02:44:14;13.52;90.72
70246;SHT30;57637;49.272;8.590;2023-05-10T02:46:42;13.52;90.82
70246;SHT30;57637;49.272;8.590;2023-05-10T02:49:08;13.53;90.82
70246;SHT30;57637;49.272;8.590;2023-05-10T02:51:35;13.53;90.83
70246;SHT30;57637;49.272;8.590;2023-05-10T02:54:03;13.54;90.80
70246;SHT30;57637;49.272;8.590;2023-05-10T02:56:35;13.57;90.84
70246;SHT30;57637;49.272;8.590;2023-05-10T02:59:04;13.56;90.78
70246;SHT30;57637;49.272;8.590;2023-05-10T03:01:30;13.59;90.82
70246;SHT30;57637;49.272;8.590;2023-05-10T03:03:55;13.57;90.73
70246;SHT30;57637;49.272;8.590;2023-05-10T03:06:21;13.56;90.62
70246;SHT30;57637;49.272;8.590;2023-05-10T03:08:46;13.56;90.75
70246;SHT30;57637;49.272;8.590;2023-05-10T03:11:16;13.53;90.68
70246;SHT30;57637;49.272;8.590;2023-05-10T03:16:46;13.44;90.70
70246;SHT30;57637;49.272;8.590;2023-05-10T03:19:22;13.40;90.64
70246;SHT30;57637;49.272;8.590;2023-05-10T03:21:52;13.36;90.72
70246;SHT30;57637;49.272;8.590;2023-05-10T03:24:20;13.32;90.71
70246;SHT30;57637;49.272;8.590;2023-05-10T03:26:48;13.30;90.77
70246;SHT30;57637;49.272;8.590;2023-05-10T03:29:15;13.29;90.78
70246;SHT30;57637;49.272;8.590;2023-05-10T03:31:41;13.23;90.86
70246;SHT30;57637;49.272;8.590;2023-05-10T03:34:06;13.22;90.88
70246;SHT30;57637;49.272;8.590;2023-05-10T03:36:32;13.22;90.89
70246;SHT30;57637;49.272;8.590;2023-05-10T03:38:58;13.22;90.93
70246;SHT30;57637;49.272;8.590;2023-05-10T03:41:23;13.24;90.92
70246;SHT30;57637;49.272;8.590;2023-05-10T03:43:50;13.22;90.97
70246;SHT30;57637;49.272;8.590;2023-05-10T03:46:15;13.18;91.00
70246;SHT30;57637;49.272;8.590;2023-05-10T03:48:40;13.11;91.10
70246;SHT30;57637;49.272;8.590;2023-05-10T03:51:06;13.06;91.12
70246;SHT30;57637;49.272;8.590;2023-05-10T03:53:31;13.05;91.20
70246;SHT30;57637;49.272;8.590;2023-05-10T03:55:56;13.01;91.20
70246;SHT30;57637;49.272;8.590;2023-05-10T03:58:22;12.99;91.29
70246;SHT30;57637;49.272;8.590;2023-05-10T04:00:47;13.01;91.32
70246;SHT30;57637;49.272;8.590;2023-05-10T04:03:12;12.99;91.34
70246;SHT30;57637;49.272;8.590;2023-05-10T04:05:38;13.02;91.34
70246;SHT30;57637;49.272;8.590;2023-05-10T04:08:04;13.02;91.31
70246;SHT30;57637;49.272;8.590;2023-05-10T04:10:30;13.03;91.32
70246;SHT30;57637;49.272;8.590;2023-05-10T04:12:56;13.03;91.29
70246;SHT30;57637;49.272;8.590;2023-05-10T04:15:21;13.08;91.29
70246;SHT30;57637;49.272;8.590;2023-05-10T04:17:47;13.11;91.31
70246;SHT30;57637;49.272;8.590;2023-05-10T04:20:13;13.13;91.31
70246;SHT30;57637;49.272;8.590;2023-05-10T04:22:38;13.13;91.26
70246;SHT30;57637;49.272;8.590;2023-05-10T04:25:04;13.16;91.31
70246;SHT30;57637;49.272;8.590;2023-05-10T04:27:30;13.22;91.25
70246;SHT30;57637;49.272;8.590;2023-05-10T04:29:56;13.26;91.21
70246;SHT30;57637;49.272;8.590;2023-05-10T04:32:21;13.27;91.13
70246;SHT30;57637;49.272;8.590;2023-05-10T04:34:47;13.26;91.13
70246;SHT30;57637;49.272;8.590;2023-05-10T04:37:12;13.29;91.06
70246;SHT30;57637;49.272;8.590;2023-05-10T04:39:37;13.30;91.03
70246;SHT30;57637;49.272;8.590;2023-05-10T04:42:03;13.32;90.97
70246;SHT30;57637;49.272;8.590;2023-05-10T04:44:30;13.33;90.95
70246;SHT30;57637;49.272;8.590;2023-05-10T04:46:56;13.35;90.92
70246;SHT30;57637;49.272;8.590;2023-05-10T04:49:22;13.35;90.86
70246;SHT30;57637;49.272;8.590;2023-05-10T04:51:47;13.38;90.90
70246;SHT30;57637;49.272;8.590;2023-05-10T04:54:13;13.39;90.87
70246;SHT30;57637;49.272;8.590;2023-05-10T04:56:38;13.46;90.81
70246;SHT30;57637;49.272;8.590;2023-05-10T04:59:03;13.49;90.80
70246;SHT30;57637;49.272;8.590;2023-05-10T05:01:29;13.52;90.75
70246;SHT30;57637;49.272;8.590;2023-05-10T05:03:54;13.52;90.69
70246;SHT30;57637;49.272;8.590;2023-05-10T05:06:20;13.57;90.64
70246;SHT30;57637;49.272;8.590;2023-05-10T05:08:49;13.64;90.54
70246;SHT30;57637;49.272;8.590;2023-05-10T05:11:15;13.69;90.52
70246;SHT30;57637;49.272;8.590;2023-05-10T05:13:40;13.71;90.38
70246;SHT30;57637;49.272;8.590;2023-05-10T05:16:06;13.77;90.34
70246;SHT30;57637;49.272;8.590;2023-05-10T05:18:31;13.83;90.25
70246;SHT30;57637;49.272;8.590;2023-05-10T05:20:57;13.88;90.15
70246;SHT30;57637;49.272;8.590;2023-05-10T05:23:22;13.93;90.04
70246;SHT30;57637;49.272;8.590;2023-05-10T05:25:51;13.95;89.93
70246;SHT30;57637;49.272;8.590;2023-05-10T05:28:16;14.00;89.95
70246;SHT30;57637;49.272;8.590;2023-05-10T05:30:42;14.04;89.72
70246;SHT30;57637;49.272;8.590;2023-05-10T05:33:07;14.07;89.84
70246;SHT30;57637;49.272;8.590;2023-05-10T05:35:33;14.17;89.82
70246;SHT30;57637;49.272;8.590;2023-05-10T05:37:58;14.25;89.80
70246;SHT30;57637;49.272;8.590;2023-05-10T05:40:23;14.34;89.61
70246;SHT30;57637;49.272;8.590;2023-05-10T05:42:49;14.44;89.55
70246;SHT30;57637;49.272;8.590;2023-05-10T05:45:14;14.51;89.34
70246;SHT30;57637;49.272;8.590;2023-05-10T05:47:40;14.56;89.27
70246;SHT30;57637;49.272;8.590;2023-05-10T05:50:06;14.65;89.17
70246;SHT30;57637;49.272;8.590;2023-05-10T05:52:31;14.65;88.99
70246;SHT30;57637;49.272;8.590;2023-05-10T05:54:57;14.69;88.87
70246;SHT30;57637;49.272;8.590;2023-05-10T05:57:22;14.65;88.75
70246;SHT30;57637;49.272;8.590;2023-05-10T05:59:48;14.65;88.88
70246;SHT30;57637;49.272;8.590;2023-05-10T06:02:13;14.65;88.81
70246;SHT30;57637;49.272;8.590;2023-05-10T06:04:38;14.68;88.94
70246;SHT30;57637;49.272;8.590;2023-05-10T06:07:04;14.66;88.88
70246;SHT30;57637;49.272;8.590;2023-05-10T06:09:29;14.69;89.04
70246;SHT30;57637;49.272;8.590;2023-05-10T06:11:54;14.72;89.01
70246;SHT30;57637;49.272;8.590;2023-05-10T06:14:20;14.75;88.83
70246;SHT30;57637;49.272;8.590;2023-05-10T06:16:46;14.73;88.75
70246;SHT30;57637;49.272;8.590;2023-05-10T06:19:11;14.76;88.75
70246;SHT30;57637;49.272;8.590;2023-05-10T06:21:36;14.86;88.99
70246;SHT30;57637;49.272;8.590;2023-05-10T06:24:02;14.87;88.75
70246;SHT30;57637;49.272;8.590;2023-05-10T06:26:28;15.02;88.90
70246;SHT30;57637;49.272;8.590;2023-05-10T06:28:53;15.03;88.86
70246;SHT30;57637;49.272;8.590;2023-05-10T06:31:19;15.17;88.74
70246;SHT30;57637;49.272;8.590;2023-05-10T06:33:44;15.26;88.46
70246;SHT30;57637;49.272;8.590;2023-05-10T06:36:10;15.36;88.25
70246;SHT30;57637;49.272;8.590;2023-05-10T06:38:35;15.36;87.84
70246;SHT30;57637;49.272;8.590;2023-05-10T06:41:01;15.47;87.84
70246;SHT30;57637;49.272;8.590;2023-05-10T06:43:26;15.47;87.46
70246;SHT30;57637;49.272;8.590;2023-05-10T06:45:53;15.62;88.01
70246;SHT30;57637;49.272;8.590;2023-05-10T06:48:19;15.71;87.48
70246;SHT30;57637;49.272;8.590;2023-05-10T06:50:44;15.84;87.21
70246;SHT30;57637;49.272;8.590;2023-05-10T06:53:09;15.92;86.54
70246;SHT30;57637;49.272;8.590;2023-05-10T06:55:35;16.01;86.42
70246;SHT30;57637;49.272;8.590;2023-05-10T06:58:00;15.94;85.84
70246;SHT30;57637;49.272;8.590;2023-05-10T07:00:27;16.01;85.83
70246;SHT30;57637;49.272;8.590;2023-05-10T07:02:52;16.22;85.67
70246;SHT30;57637;49.272;8.590;2023-05-10T07:05:17;16.36;85.27
70246;SHT30;57637;49.272;8.590;2023-05-10T07:07:43;16.38;85.17
70246;SHT30;57637;49.272;8.590;2023-05-10T07:10:09;16.38;84.43
70246;SHT30;57637;49.272;8.590;2023-05-10T07:12:34;16.46;85.15
70246;SHT30;57637;49.272;8.590;2023-05-10T07:14:59;16.46;84.59
70246;SHT30;57637;49.272;8.590;2023-05-10T07:17:25;16.32;85.14
70246;SHT30;57637;49.272;8.590;2023-05-10T07:19:50;16.41;84.29
70246;SHT30;57637;49.272;8.590;2023-05-10T07:22:16;16.66;84.41
70246;SHT30;57637;49.272;8.590;2023-05-10T07:24:44;16.76;83.96
70246;SHT30;57637;49.272;8.590;2023-05-10T07:27:09;16.81;83.12
70246;SHT30;57637;49.272;8.590;2023-05-10T07:29:35;16.84;83.08
70246;SHT30;57637;49.272;8.590;2023-05-10T07:32:00;17.06;82.18
70246;SHT30;57637;49.272;8.590;2023-05-10T07:34:26;17.37;81.29
70246;SHT30;57637;49.272;8.590;2023-05-10T07:36:52;17.54;81.08
70246;SHT30;57637;49.272;8.590;2023-05-10T07:39:18;17.76;80.26
70246;SHT30;57637;49.272;8.590;2023-05-10T07:41:43;17.93;79.85
70246;SHT30;57637;49.272;8.590;2023-05-10T07:44:08;17.93;78.96
70246;SHT30;57637;49.272;8.590;2023-05-10T07:46:34;18.16;78.50
70246;SHT30;57637;49.272;8.590;2023-05-10T07:48:59;18.14;78.95
70246;SHT30;57637;49.272;8.590;2023-05-10T07:51:24;18.34;77.88
70246;SHT30;57637;49.272;8.590;2023-05-10T07:53:50;18.36;78.12
70246;SHT30;57637;49.272;8.590;2023-05-10T07:56:22;18.54;76.63
70246;SHT30;57637;49.272;8.590;2023-05-10T07:58:50;18.56;76.68
70246;SHT30;57637;49.272;8.590;2023-05-10T08:01:16;18.51;77.42
70246;SHT30;57637;49.272;8.590;2023-05-10T08:03:42;18.17;76.94
70246;SHT30;57637;49.272;8.590;2023-05-10T08:06:07;18.07;79.05
70246;SHT30;57637;49.272;8.590;2023-05-10T08:08:36;17.81;77.60
70246;SHT30;57637;49.272;8.590;2023-05-10T08:11:01;17.90;77.88
70246;SHT30;57637;49.272;8.590;2023-05-10T08:13:27;18.17;78.49
70246;SHT30;57637;49.272;8.590;2023-05-10T08:15:52;18.20;77.99
70246;SHT30;57637;49.272;8.590;2023-05-10T08:18:18;18.23;76.58
70246;SHT30;57637;49.272;8.590;2023-05-10T08:20:44;18.61;76.12
70246;SHT30;57637;49.272;8.590;2023-05-10T08:23:09;18.85;74.47
70246;SHT30;57637;49.272;8.590;2023-05-10T08:25:35;19.15;73.46
70246;SHT30;57637;49.272;8.590;2023-05-10T08:28:00;19.41;72.74
70246;SHT30;57637;49.272;8.590;2023-05-10T08:30:25;19.53;72.35
70246;SHT30;57637;49.272;8.590;2023-05-10T08:32:51;19.48;71.75
70246;SHT30;57637;49.272;8.590;2023-05-10T08:35:16;19.45;72.48
70246;SHT30;57637;49.272;8.590;2023-05-10T08:37:42;19.22;72.08
70246;SHT30;57637;49.272;8.590;2023-05-10T08:40:07;19.22;72.39
70246;SHT30;57637;49.272;8.590;2023-05-10T08:42:36;19.33;73.19
70246;SHT30;57637;49.272;8.590;2023-05-10T08:45:06;19.31;73.27
70246;SHT30;57637;49.272;8.590;2023-05-10T08:47:33;19.12;72.00
70246;SHT30;57637;49.272;8.590;2023-05-10T08:50:03;19.15;72.17
70246;SHT30;57637;49.272;8.590;2023-05-10T08:52:28;19.23;71.42
70246;SHT30;57637;49.272;8.590;2023-05-10T08:54:56;19.05;70.89
70246;SHT30;57637;49.272;8.590;2023-05-10T08:57:21;19.19;70.68
70246;SHT30;57637;49.272;8.590;2023-05-10T08:59:47;19.19;69.65
70246;SHT30;57637;49.272;8.590;2023-05-10T09:02:13;19.14;70.05
70246;SHT30;57637;49.272;8.590;2023-05-10T09:04:39;19.01;70.23
70246;SHT30;57637;49.272;8.590;2023-05-10T09:07:04;18.95;70.95
70246;SHT30;57637;49.272;8.590;2023-05-10T09:09:30;18.97;70.22
70246;SHT30;57637;49.272;8.590;2023-05-10T09:11:56;18.91;69.89
70246;SHT30;57637;49.272;8.590;2023-05-10T09:14:22;19.02;70.96
70246;SHT30;57637;49.272;8.590;2023-05-10T09:16:48;18.77;68.86
70246;SHT30;57637;49.272;8.590;2023-05-10T09:19:14;19.19;69.58
70246;SHT30;57637;49.272;8.590;2023-05-10T09:21:39;19.22;69.04
70246;SHT30;57637;49.272;8.590;2023-05-10T09:24:05;19.33;68.02
70246;SHT30;57637;49.272;8.590;2023-05-10T09:26:32;19.65;67.50
70246;SHT30;57637;49.272;8.590;2023-05-10T09:28:58;19.87;66.04
70246;SHT30;57637;49.272;8.590;2023-05-10T09:31:25;19.77;65.67
70246;SHT30;57637;49.272;8.590;2023-05-10T09:34:09;19.89;65.93
70246;SHT30;57637;49.272;8.590;2023-05-10T09:36:35;19.94;64.39
70246;SHT30;57637;49.272;8.590;2023-05-10T09:39:00;19.58;65.58
70246;SHT30;57637;49.272;8.590;2023-05-10T09:41:25;19.84;65.41
70246;SHT30;57637;49.272;8.590;2023-05-10T09:43:55;20.12;66.28
70246;SHT30;57637;49.272;8.590;2023-05-10T09:46:21;20.00;66.60
70246;SHT30;57637;49.272;8.590;2023-05-10T09:48:48;20.41;66.30
70246;SHT30;57637;49.272;8.590;2023-05-10T09:51:23;20.20;65.00
70246;SHT30;57637;49.272;8.590;2023-05-10T09:54:09;20.10;63.54
70246;SHT30;57637;49.272;8.590;2023-05-10T09:56:35;19.72;64.34
70246;SHT30;57637;49.272;8.590;2023-05-10T09:59:03;19.62;65.22
70246;SHT30;57637;49.272;8.590;2023-05-10T10:01:30;19.84;64.46
70246;SHT30;57637;49.272;8.590;2023-05-10T10:03:55;19.92;64.98
70246;SHT30;57637;49.272;8.590;2023-05-10T10:06:22;20.37;63.30
70246;SHT30;57637;49.272;8.590;2023-05-10T10:08:48;20.55;63.33
70246;SHT30;57637;49.272;8.590;2023-05-10T10:11:15;20.16;64.26
70246;SHT30;57637;49.272;8.590;2023-05-10T10:13:41;20.63;63.23
70246;SHT30;57637;49.272;8.590;2023-05-10T10:16:07;20.14;63.26
70246;SHT30;57637;49.272;8.590;2023-05-10T10:18:33;19.79;63.72
70246;SHT30;57637;49.272;8.590;2023-05-10T10:21:04;19.84;61.41
70246;SHT30;57637;49.272;8.590;2023-05-10T10:23:34;19.51;62.98
70246;SHT30;57637;49.272;8.590;2023-05-10T10:26:00;19.63;63.53
70246;SHT30;57637;49.272;8.590;2023-05-10T10:34:10;19.63;63.43
70246;SHT30;57637;49.272;8.590;2023-05-10T10:36:45;19.66;63.40
70246;SHT30;57637;49.272;8.590;2023-05-10T10:39:12;19.93;62.33
70246;SHT30;57637;49.272;8.590;2023-05-10T10:41:59;20.06;62.50
70246;SHT30;57637;49.272;8.590;2023-05-10T10:47:05;20.51;61.92
70246;SHT30;57637;49.272;8.590;2023-05-10T10:54:49;20.35;58.90
70246;SHT30;57637;49.272;8.590;2023-05-10T10:57:17;20.24;60.12
70246;SHT30;57637;49.272;8.590;2023-05-10T10:59:43;20.17;60.35
70246;SHT30;57637;49.272;8.590;2023-05-10T11:02:10;19.97;60.93
70246;SHT30;57637;49.272;8.590;2023-05-10T11:04:55;20.25;60.33
70246;SHT30;57637;49.272;8.590;2023-05-10T11:07:21;20.10;61.41
70246;SHT30;57637;49.272;8.590;2023-05-10T11:09:49;20.37;61.68
70246;SHT30;57637;49.272;8.590;2023-05-10T11:12:16;20.63;58.39
70246;SHT30;57637;49.272;8.590;2023-05-10T11:14:49;20.92;58.22
70246;SHT30;57637;49.272;8.590;2023-05-10T11:17:27;20.88;56.83
70246;SHT30;57637;49.272;8.590;2023-05-10T11:20:07;20.59;57.41
70246;SHT30;57637;49.272;8.590;2023-05-10T11:22:54;20.67;57.85
70246;SHT30;57637;49.272;8.590;2023-05-10T11:25:20;20.61;57.32
70246;SHT30;57637;49.272;8.590;2023-05-10T11:27:51;20.27;58.21
70246;SHT30;57637;49.272;8.590;2023-05-10T11:30:16;20.25;58.45
70246;SHT30;57637;49.272;8.590;2023-05-10T11:32:42;20.14;58.51
70246;SHT30;57637;49.272;8.590;2023-05-10T11:35:11;20.04;59.63
70246;SHT30;57637;49.272;8.590;2023-05-10T11:37:38;20.04;59.28
70246;SHT30;57637;49.272;8.590;2023-05-10T11:40:07;19.41;60.80
70246;SHT30;57637;49.272;8.590;2023-05-10T11:42:35;19.65;61.07
70246;SHT30;57637;49.272;8.590;2023-05-10T11:45:02;19.45;61.24
70246;SHT30;57637;49.272;8.590;2023-05-10T11:47:28;18.98;63.71
70246;SHT30;57637;49.272;8.590;2023-05-10T11:49:53;18.33;66.74
70246;SHT30;57637;49.272;8.590;2023-05-10T11:52:19;18.29;68.15
70246;SHT30;57637;49.272;8.590;2023-05-10T11:54:51;17.97;66.66
70246;SHT30;57637;49.272;8.590;2023-05-10T11:57:20;17.72;67.20
70246;SHT30;57637;49.272;8.590;2023-05-10T11:59:53;17.52;66.69
70246;SHT30;57637;49.272;8.590;2023-05-10T12:02:20;17.30;67.50
70246;SHT30;57637;49.272;8.590;2023-05-10T12:04:45;17.52;66.51
70246;SHT30;57637;49.272;8.590;2023-05-10T12:07:11;17.52;66.07
70246;SHT30;57637;49.272;8.590;2023-05-10T12:09:37;17.75;64.68
70246;SHT30;57637;49.272;8.590;2023-05-10T12:12:07;17.76;64.62
70246;SHT30;57637;49.272;8.590;2023-05-10T12:14:34;17.90;62.72
70246;SHT30;57637;49.272;8.590;2023-05-10T12:17:00;18.09;62.68
70246;SHT30;57637;49.272;8.590;2023-05-10T12:19:25;18.29;61.62
70246;SHT30;57637;49.272;8.590;2023-05-10T12:21:51;18.37;60.72
70246;SHT30;57637;49.272;8.590;2023-05-10T12:24:16;18.64;58.50
70246;SHT30;57637;49.272;8.590;2023-05-10T12:26:43;18.90;59.33
70246;SHT30;57637;49.272;8.590;2023-05-10T12:31:50;19.48;56.98
70246;SHT30;57637;49.272;8.590;2023-05-10T12:34:23;19.41;57.15
70246;SHT30;57637;49.272;8.590;2023-05-10T12:36:53;19.70;57.18
70246;SHT30;57637;49.272;8.590;2023-05-10T12:39:19;19.72;58.07
70246;SHT30;57637;49.272;8.590;2023-05-10T12:41:44;19.92;56.66
70246;SHT30;57637;49.272;8.590;2023-05-10T12:44:10;19.63;57.83
70246;SHT30;57637;49.272;8.590;2023-05-10T12:46:35;19.73;58.06
70246;SHT30;57637;49.272;8.590;2023-05-10T12:49:01;19.97;57.78
70246;SHT30;57637;49.272;8.590;2023-05-10T12:51:26;19.96;56.77
70246;SHT30;57637;49.272;8.590;2023-05-10T12:53:52;20.13;55.87
70246;SHT30;57637;49.272;8.590;2023-05-10T12:56:17;19.97;56.31
70246;SHT30;57637;49.272;8.590;2023-05-10T12:58:42;20.61;56.42
70246;SHT30;57637;49.272;8.590;2023-05-10T13:01:12;20.79;55.32
70246;SHT30;57637;49.272;8.590;2023-05-10T13:03:38;20.59;55.32
70246;SHT30;57637;49.272;8.590;2023-05-10T13:06:04;20.03;56.82
70246;SHT30;57637;49.272;8.590;2023-05-10T13:08:30;20.49;56.50
70246;SHT30;57637;49.272;8.590;2023-05-10T13:10:58;20.57;54.66
70246;SHT30;57637;49.272;8.590;2023-05-10T13:13:24;20.89;53.52
70246;SHT30;57637;49.272;8.590;2023-05-10T13:15:50;20.92;53.30
70246;SHT30;57637;49.272;8.590;2023-05-10T13:18:15;20.76;52.68
70246;SHT30;57637;49.272;8.590;2023-05-10T13:20:40;20.67;53.09
70246;SHT30;57637;49.272;8.590;2023-05-10T13:23:06;20.98;52.24
70246;SHT30;57637;49.272;8.590;2023-05-10T13:25:31;20.49;52.04
70246;SHT30;57637;49.272;8.590;2023-05-10T13:27:56;20.85;52.52
70246;SHT30;57637;49.272;8.590;2023-05-10T13:30:22;20.68;52.47
70246;SHT30;57637;49.272;8.590;2023-05-10T13:32:48;20.86;52.32
70246;SHT30;57637;49.272;8.590;2023-05-10T13:35:14;20.76;51.56
70246;SHT30;57637;49.272;8.590;2023-05-10T13:37:40;20.74;52.02
70246;SHT30;57637;49.272;8.590;2023-05-10T13:40:07;20.72;52.11
70246;SHT30;57637;49.272;8.590;2023-05-10T13:42:32;20.74;50.98
70246;SHT30;57637;49.272;8.590;2023-05-10T13:44:58;21.00;50.70
70246;SHT30;57637;49.272;8.590;2023-05-10T13:47:26;20.47;51.15
70246;SHT30;57637;49.272;8.590;2023-05-10T13:49:51;20.71;51.14
70246;SHT30;57637;49.272;8.590;2023-05-10T13:52:17;20.99;51.40
70246;SHT30;57637;49.272;8.590;2023-05-10T13:54:43;21.35;50.35
70246;SHT30;57637;49.272;8.590;2023-05-10T13:57:10;21.47;51.54
70246;SHT30;57637;49.272;8.590;2023-05-10T13:59:38;21.74;50.12
70246;SHT30;57637;49.272;8.590;2023-05-10T14:02:04;21.60;50.07
70246;SHT30;57637;49.272;8.590;2023-05-10T14:04:29;21.68;49.84
70246;SHT30;57637;49.272;8.590;2023-05-10T14:06:55;21.73;50.36
70246;SHT30;57637;49.272;8.590;2023-05-10T14:09:20;21.13;49.69
70246;SHT30;57637;49.272;8.590;2023-05-10T14:11:46;21.30;49.09
70246;SHT30;57637;49.272;8.590;2023-05-10T14:14:11;21.16;49.86
70246;SHT30;57637;49.272;8.590;2023-05-10T14:16:38;20.96;49.58
70246;SHT30;57637;49.272;8.590;2023-05-10T14:19:06;21.12;49.36
70246;SHT30;57637;49.272;8.590;2023-05-10T14:21:32;20.69;49.23
70246;SHT30;57637;49.272;8.590;2023-05-10T14:23:58;20.88;50.22
70246;SHT30;57637;49.272;8.590;2023-05-10T14:26:23;20.88;49.95
70246;SHT30;57637;49.272;8.590;2023-05-10T14:28:48;20.75;49.91
70246;SHT30;57637;49.272;8.590;2023-05-10T14:31:14;21.12;49.27
70246;SHT30;57637;49.272;8.590;2023-05-10T14:33:41;20.92;50.12
70246;SHT30;57637;49.272;8.590;2023-05-10T14:36:08;19.96;49.69
70246;SHT30;57637;49.272;8.590;2023-05-10T14:38:33;20.04;51.38
70246;SHT30;57637;49.272;8.590;2023-05-10T14:40:59;19.69;50.48
70246;SHT30;57637;49.272;8.590;2023-05-10T14:43:24;19.76;52.59
70246;SHT30;57637;49.272;8.590;2023-05-10T14:45:50;20.34;51.38
70246;SHT30;57637;49.272;8.590;2023-05-10T14:48:15;20.41;51.59
70246;SHT30;57637;49.272;8.590;2023-05-10T14:50:42;20.61;50.49
70246;SHT30;57637;49.272;8.590;2023-05-10T14:53:08;20.94;49.75
70246;SHT30;57637;49.272;8.590;2023-05-10T14:55:34;21.00;49.05
70246;SHT30;57637;49.272;8.590;2023-05-10T14:58:00;20.89;49.22
70246;SHT30;57637;49.272;8.590;2023-05-10T15:00:27;21.13;49.68
70246;SHT30;57637;49.272;8.590;2023-05-10T15:02:54;21.13;49.91
70246;SHT30;57637;49.272;8.590;2023-05-10T15:05:19;21.18;49.55
70246;SHT30;57637;49.272;8.590;2023-05-10T15:07:44;20.96;49.87
70246;SHT30;57637;49.272;8.590;2023-05-10T15:10:10;20.82;50.21
70246;SHT30;57637;49.272;8.590;2023-05-10T15:12:36;20.76;49.64
70246;SHT30;57637;49.272;8.590;2023-05-10T15:15:02;20.78;50.69
70246;SHT30;57637;49.272;8.590;2023-05-10T15:17:27;20.68;50.79
70246;SHT30;57637;49.272;8.590;2023-05-10T15:19:53;20.65;49.60
70246;SHT30;57637;49.272;8.590;2023-05-10T15:22:18;21.23;49.69
70246;SHT30;57637;49.272;8.590;2023-05-10T15:24:44;20.94;49.33
70246;SHT30;57637;49.272;8.590;2023-05-10T15:27:09;20.99;49.84
70246;SHT30;57637;49.272;8.590;2023-05-10T15:29:34;20.95;49.54
70246;SHT30;57637;49.272;8.590;2023-05-10T15:32:01;20.94;48.45
70246;SHT30;57637;49.272;8.590;2023-05-10T15:34:26;20.58;49.07
70246;SHT30;57637;49.272;8.590;2023-05-10T15:36:52;20.69;49.95
70246;SHT30;57637;49.272;8.590;2023-05-10T15:39:17;20.81;49.32
70246;SHT30;57637;49.272;8.590;2023-05-10T15:41:43;20.98;48.72
70246;SHT30;57637;49.272;8.590;2023-05-10T15:44:08;20.49;49.65
70246;SHT30;57637;49.272;8.590;2023-05-10T15:46:34;20.54;49.56
70246;SHT30;57637;49.272;8.590;2023-05-10T15:48:59;20.54;49.20
70246;SHT30;57637;49.272;8.590;2023-05-10T15:51:33;20.59;49.95
70246;SHT30;57637;49.272;8.590;2023-05-10T15:53:59;20.67;50.73
70246;SHT30;57637;49.272;8.590;2023-05-10T15:56:26;20.65;50.23
70246;SHT30;57637;49.272;8.590;2023-05-10T15:58:52;20.68;50.14
70246;SHT30;57637;49.272;8.590;2023-05-10T16:01:17;20.86;50.27
70246;SHT30;57637;49.272;8.590;2023-05-10T16:03:43;20.72;50.91